sensor_id;sensor_type;location;lat;lon;timestamp;P1;durP1;ratioP1;P2;durP2;ratioP2
65375;SDS011;51976;47.332;9.404;2023-05-19T00:01:35;4.30;;;2.65;;
65375;SDS011;51976;47.332;9.404;2023-05-19T00:04:02;4.47;;;2.60;;
65375;SDS011;51976;47.332;9.404;2023-05-19T00:06:29;5.88;;;2.47;;
65375;SDS011;51976;47.332;9.404;2023-05-19T00:09:02;3.47;;;2.30;;
65375;SDS011;51976;47.332;9.404;2023-05-19T00:11:32;5.03;;;2.95;;
65375;SDS011;51976;47.332;9.404;2023-05-19T00:14:00;5.28;;;3.10;;
65375;SDS011;51976;47.332;9.404;2023-05-19T00:16:28;3.83;;;2.65;;
65375;SDS011;51976;47.332;9.404;2023-05-19T00:18:54;5.07;;;2.78;;
65375;SDS011;51976;47.332;9.404;2023-05-19T00:21:21;8.77;;;2.80;;
65375;SDS011;51976;47.332;9.404;2023-05-19T00:23:47;4.63;;;2.97;;
65375;SDS011;51976;47.332;9.404;2023-05-19T00:26:12;8.43;;;2.90;;
65375;SDS011;51976;47.332;9.404;2023-05-19T00:28:38;7.70;;;3.20;;
65375;SDS011;51976;47.332;9.404;2023-05-19T00:31:03;3.17;;;2.72;;
65375;SDS011;51976;47.332;9.404;2023-05-19T00:33:29;4.72;;;2.70;;
65375;SDS011;51976;47.332;9.404;2023-05-19T00:35:54;4.20;;;3.10;;
65375;SDS011;51976;47.332;9.404;2023-05-19T00:38:20;5.20;;;2.65;;
65375;SDS011;51976;47.332;9.404;2023-05-19T00:40:45;5.80;;;3.05;;
65375;SDS011;51976;47.332;9.404;2023-05-19T00:43:11;5.03;;;3.35;;
65375;SDS011;51976;47.332;9.404;2023-05-19T00:45:36;6.80;;;3.40;;
65375;SDS011;51976;47.332;9.404;2023-05-19T00:48:02;5.07;;;3.00;;
65375;SDS011;51976;47.332;9.404;2023-05-19T00:50:28;5.90;;;3.20;;
65375;SDS011;51976;47.332;9.404;2023-05-19T00:52:54;4.22;;;2.90;;
65375;SDS011;51976;47.332;9.404;2023-05-19T00:55:21;6.05;;;3.03;;
65375;SDS011;51976;47.332;9.404;2023-05-19T00:57:49;3.47;;;2.92;;
65375;SDS011;51976;47.332;9.404;2023-05-19T01:00:16;4.53;;;2.85;;
65375;SDS011;51976;47.332;9.404;2023-05-19T01:02:46;5.93;;;2.95;;
65375;SDS011;51976;47.332;9.404;2023-05-19T01:05:14;5.22;;;2.90;;
65375;SDS011;51976;47.332;9.404;2023-05-19T01:07:42;4.38;;;3.10;;
65375;SDS011;51976;47.332;9.404;2023-05-19T01:10:19;5.78;;;3.10;;
65375;SDS011;51976;47.332;9.404;2023-05-19T01:12:46;5.97;;;3.10;;
65375;SDS011;51976;47.332;9.404;2023-05-19T01:15:12;5.82;;;2.45;;
65375;SDS011;51976;47.332;9.404;2023-05-19T01:17:45;4.93;;;3.28;;
65375;SDS011;51976;47.332;9.404;2023-05-19T01:20:23;7.35;;;3.03;;
65375;SDS011;51976;47.332;9.404;2023-05-19T01:23:11;4.10;;;2.50;;
65375;SDS011;51976;47.332;9.404;2023-05-19T01:25:56;5.25;;;2.53;;
65375;SDS011;51976;47.332;9.404;2023-05-19T01:28:52;3.47;;;2.50;;
65375;SDS011;51976;47.332;9.404;2023-05-19T01:31:41;4.75;;;3.10;;
65375;SDS011;51976;47.332;9.404;2023-05-19T01:34:09;8.18;;;3.17;;
65375;SDS011;51976;47.332;9.404;2023-05-19T01:36:36;4.90;;;3.28;;
65375;SDS011;51976;47.332;9.404;2023-05-19T01:39:02;5.13;;;2.80;;
65375;SDS011;51976;47.332;9.404;2023-05-19T01:41:28;3.72;;;3.20;;
65375;SDS011;51976;47.332;9.404;2023-05-19T01:43:56;3.70;;;3.00;;
65375;SDS011;51976;47.332;9.404;2023-05-19T01:46:22;4.38;;;2.70;;
65375;SDS011;51976;47.332;9.404;2023-05-19T01:48:48;5.78;;;3.13;;
65375;SDS011;51976;47.332;9.404;2023-05-19T01:51:14;9.90;;;3.20;;
65375;SDS011;51976;47.332;9.404;2023-05-19T01:53:39;7.93;;;3.63;;
65375;SDS011;51976;47.332;9.404;2023-05-19T01:56:05;4.25;;;2.90;;
65375;SDS011;51976;47.332;9.404;2023-05-19T01:58:46;5.00;;;3.22;;
65375;SDS011;51976;47.332;9.404;2023-05-19T02:01:28;4.70;;;3.13;;
65375;SDS011;51976;47.332;9.404;2023-05-19T02:04:00;6.15;;;3.22;;
65375;SDS011;51976;47.332;9.404;2023-05-19T02:06:58;3.20;;;2.90;;
65375;SDS011;51976;47.332;9.404;2023-05-19T02:12:23;3.85;;;2.90;;
65375;SDS011;51976;47.332;9.404;2023-05-19T02:14:55;4.30;;;3.00;;
65375;SDS011;51976;47.332;9.404;2023-05-19T02:17:26;4.82;;;3.05;;
65375;SDS011;51976;47.332;9.404;2023-05-19T02:19:56;3.88;;;3.03;;
65375;SDS011;51976;47.332;9.404;2023-05-19T02:22:22;7.05;;;3.17;;
65375;SDS011;51976;47.332;9.404;2023-05-19T02:24:47;6.20;;;2.83;;
65375;SDS011;51976;47.332;9.404;2023-05-19T02:27:15;5.05;;;2.90;;
65375;SDS011;51976;47.332;9.404;2023-05-19T02:29:41;8.38;;;3.03;;
65375;SDS011;51976;47.332;9.404;2023-05-19T02:32:06;5.45;;;3.03;;
65375;SDS011;51976;47.332;9.404;2023-05-19T02:34:32;5.72;;;3.30;;
65375;SDS011;51976;47.332;9.404;2023-05-19T02:36:57;5.22;;;2.90;;
65375;SDS011;51976;47.332;9.404;2023-05-19T02:39:23;4.22;;;2.83;;
65375;SDS011;51976;47.332;9.404;2023-05-19T02:41:48;4.13;;;2.95;;
65375;SDS011;51976;47.332;9.404;2023-05-19T02:44:14;5.32;;;2.92;;
65375;SDS011;51976;47.332;9.404;2023-05-19T02:46:39;4.15;;;2.85;;
65375;SDS011;51976;47.332;9.404;2023-05-19T02:49:04;6.97;;;3.35;;
65375;SDS011;51976;47.332;9.404;2023-05-19T02:51:30;5.22;;;3.35;;
65375;SDS011;51976;47.332;9.404;2023-05-19T02:53:55;4.03;;;3.28;;
65375;SDS011;51976;47.332;9.404;2023-05-19T02:56:20;4.03;;;2.85;;
65375;SDS011;51976;47.332;9.404;2023-05-19T02:58:46;6.90;;;3.15;;
65375;SDS011;51976;47.332;9.404;2023-05-19T03:01:11;4.72;;;2.55;;
65375;SDS011;51976;47.332;9.404;2023-05-19T03:03:37;5.25;;;2.95;;
65375;SDS011;51976;47.332;9.404;2023-05-19T03:06:02;5.95;;;3.00;;
65375;SDS011;51976;47.332;9.404;2023-05-19T03:08:27;4.82;;;2.83;;
65375;SDS011;51976;47.332;9.404;2023-05-19T03:10:53;5.32;;;3.33;;
65375;SDS011;51976;47.332;9.404;2023-05-19T03:13:18;3.85;;;2.80;;
65375;SDS011;51976;47.332;9.404;2023-05-19T03:15:44;4.03;;;2.65;;
65375;SDS011;51976;47.332;9.404;2023-05-19T03:18:09;4.82;;;3.20;;
65375;SDS011;51976;47.332;9.404;2023-05-19T03:20:36;5.10;;;2.90;;
65375;SDS011;51976;47.332;9.404;2023-05-19T03:23:02;6.38;;;3.03;;
65375;SDS011;51976;47.332;9.404;2023-05-19T03:25:27;12.65;;;3.47;;
65375;SDS011;51976;47.332;9.404;2023-05-19T03:27:54;5.45;;;3.08;;
65375;SDS011;51976;47.332;9.404;2023-05-19T03:30:19;7.97;;;2.90;;
65375;SDS011;51976;47.332;9.404;2023-05-19T03:32:44;6.68;;;3.28;;
65375;SDS011;51976;47.332;9.404;2023-05-19T03:35:10;4.97;;;3.42;;
65375;SDS011;51976;47.332;9.404;2023-05-19T03:37:35;7.72;;;3.33;;
65375;SDS011;51976;47.332;9.404;2023-05-19T03:40:00;5.18;;;2.80;;
65375;SDS011;51976;47.332;9.404;2023-05-19T03:42:26;11.13;;;3.22;;
65375;SDS011;51976;47.332;9.404;2023-05-19T03:44:51;6.43;;;2.90;;
65375;SDS011;51976;47.332;9.404;2023-05-19T03:47:17;4.32;;;3.10;;
65375;SDS011;51976;47.332;9.404;2023-05-19T03:49:42;8.50;;;3.25;;
65375;SDS011;51976;47.332;9.404;2023-05-19T03:52:07;4.90;;;2.97;;
65375;SDS011;51976;47.332;9.404;2023-05-19T03:54:33;3.65;;;2.78;;
65375;SDS011;51976;47.332;9.404;2023-05-19T03:57:00;7.72;;;3.30;;
65375;SDS011;51976;47.332;9.404;2023-05-19T03:59:26;9.38;;;3.67;;
65375;SDS011;51976;47.332;9.404;2023-05-19T04:01:51;5.47;;;3.35;;
65375;SDS011;51976;47.332;9.404;2023-05-19T04:04:17;8.20;;;3.40;;
65375;SDS011;51976;47.332;9.404;2023-05-19T04:06:42;4.10;;;3.05;;
65375;SDS011;51976;47.332;9.404;2023-05-19T04:09:10;6.35;;;3.55;;
65375;SDS011;51976;47.332;9.404;2023-05-19T04:11:37;5.45;;;3.63;;
65375;SDS011;51976;47.332;9.404;2023-05-19T04:14:03;4.78;;;3.10;;
65375;SDS011;51976;47.332;9.404;2023-05-19T04:16:29;4.28;;;3.08;;
65375;SDS011;51976;47.332;9.404;2023-05-19T04:18:54;4.65;;;3.25;;
65375;SDS011;51976;47.332;9.404;2023-05-19T04:21:20;6.03;;;3.80;;
65375;SDS011;51976;47.332;9.404;2023-05-19T04:23:46;4.35;;;2.92;;
65375;SDS011;51976;47.332;9.404;2023-05-19T04:26:11;4.70;;;3.08;;
65375;SDS011;51976;47.332;9.404;2023-05-19T04:28:38;8.95;;;3.30;;
65375;SDS011;51976;47.332;9.404;2023-05-19T04:31:06;11.18;;;3.28;;
65375;SDS011;51976;47.332;9.404;2023-05-19T04:33:34;3.15;;;2.22;;
65375;SDS011;51976;47.332;9.404;2023-05-19T04:36:00;6.43;;;3.08;;
65375;SDS011;51976;47.332;9.404;2023-05-19T04:38:29;4.07;;;3.00;;
65375;SDS011;51976;47.332;9.404;2023-05-19T04:40:55;6.32;;;2.97;;
65375;SDS011;51976;47.332;9.404;2023-05-19T04:43:20;3.25;;;2.80;;
65375;SDS011;51976;47.332;9.404;2023-05-19T04:45:46;4.28;;;3.00;;
65375;SDS011;51976;47.332;9.404;2023-05-19T04:48:14;4.45;;;3.30;;
65375;SDS011;51976;47.332;9.404;2023-05-19T04:50:39;4.35;;;2.92;;
65375;SDS011;51976;47.332;9.404;2023-05-19T04:53:06;6.28;;;2.92;;
65375;SDS011;51976;47.332;9.404;2023-05-19T04:55:32;4.82;;;3.53;;
65375;SDS011;51976;47.332;9.404;2023-05-19T04:57:58;5.07;;;2.92;;
65375;SDS011;51976;47.332;9.404;2023-05-19T05:00:23;4.45;;;3.40;;
65375;SDS011;51976;47.332;9.404;2023-05-19T05:02:49;5.68;;;3.65;;
65375;SDS011;51976;47.332;9.404;2023-05-19T05:05:14;4.00;;;2.95;;
65375;SDS011;51976;47.332;9.404;2023-05-19T05:07:41;6.75;;;4.13;;
65375;SDS011;51976;47.332;9.404;2023-05-19T05:10:07;5.95;;;3.35;;
65375;SDS011;51976;47.332;9.404;2023-05-19T05:12:33;5.63;;;3.78;;
65375;SDS011;51976;47.332;9.404;2023-05-19T05:14:59;4.40;;;3.25;;
65375;SDS011;51976;47.332;9.404;2023-05-19T05:17:25;5.03;;;3.60;;
65375;SDS011;51976;47.332;9.404;2023-05-19T05:19:51;6.88;;;4.10;;
65375;SDS011;51976;47.332;9.404;2023-05-19T05:22:16;8.02;;;3.92;;
65375;SDS011;51976;47.332;9.404;2023-05-19T05:24:42;6.60;;;4.20;;
65375;SDS011;51976;47.332;9.404;2023-05-19T05:27:08;5.82;;;4.03;;
65375;SDS011;51976;47.332;9.404;2023-05-19T05:29:34;5.57;;;4.00;;
65375;SDS011;51976;47.332;9.404;2023-05-19T05:31:59;10.05;;;4.70;;
65375;SDS011;51976;47.332;9.404;2023-05-19T05:34:24;5.28;;;4.05;;
65375;SDS011;51976;47.332;9.404;2023-05-19T05:36:50;5.63;;;4.03;;
65375;SDS011;51976;47.332;9.404;2023-05-19T05:39:15;5.72;;;3.90;;
65375;SDS011;51976;47.332;9.404;2023-05-19T05:41:41;7.70;;;4.20;;
65375;SDS011;51976;47.332;9.404;2023-05-19T05:44:06;6.13;;;4.35;;
65375;SDS011;51976;47.332;9.404;2023-05-19T05:46:31;6.07;;;3.85;;
65375;SDS011;51976;47.332;9.404;2023-05-19T05:48:58;5.15;;;4.18;;
65375;SDS011;51976;47.332;9.404;2023-05-19T05:51:24;7.72;;;4.45;;
65375;SDS011;51976;47.332;9.404;2023-05-19T05:53:51;7.78;;;4.22;;
65375;SDS011;51976;47.332;9.404;2023-05-19T05:56:18;9.60;;;4.95;;
65375;SDS011;51976;47.332;9.404;2023-05-19T05:58:45;9.00;;;5.20;;
65375;SDS011;51976;47.332;9.404;2023-05-19T06:01:11;7.75;;;4.40;;
65375;SDS011;51976;47.332;9.404;2023-05-19T06:03:40;7.90;;;4.72;;
65375;SDS011;51976;47.332;9.404;2023-05-19T06:06:08;7.85;;;4.72;;
65375;SDS011;51976;47.332;9.404;2023-05-19T06:08:34;9.75;;;4.68;;
65375;SDS011;51976;47.332;9.404;2023-05-19T06:11:00;7.68;;;5.13;;
65375;SDS011;51976;47.332;9.404;2023-05-19T06:13:25;7.30;;;5.13;;
65375;SDS011;51976;47.332;9.404;2023-05-19T06:15:51;12.02;;;5.20;;
65375;SDS011;51976;47.332;9.404;2023-05-19T06:18:17;8.18;;;5.13;;
65375;SDS011;51976;47.332;9.404;2023-05-19T06:20:42;8.68;;;5.40;;
65375;SDS011;51976;47.332;9.404;2023-05-19T06:23:08;7.93;;;4.97;;
65375;SDS011;51976;47.332;9.404;2023-05-19T06:25:33;12.13;;;5.35;;
65375;SDS011;51976;47.332;9.404;2023-05-19T06:27:59;9.38;;;4.82;;
65375;SDS011;51976;47.332;9.404;2023-05-19T06:30:24;8.15;;;4.85;;
65375;SDS011;51976;47.332;9.404;2023-05-19T06:32:50;9.07;;;4.68;;
65375;SDS011;51976;47.332;9.404;2023-05-19T06:35:15;6.53;;;4.20;;
65375;SDS011;51976;47.332;9.404;2023-05-19T06:37:40;11.02;;;4.75;;
65375;SDS011;51976;47.332;9.404;2023-05-19T06:40:06;7.05;;;5.40;;
65375;SDS011;51976;47.332;9.404;2023-05-19T06:42:32;7.70;;;4.85;;
65375;SDS011;51976;47.332;9.404;2023-05-19T06:44:57;7.03;;;5.18;;
65375;SDS011;51976;47.332;9.404;2023-05-19T06:47:23;7.13;;;4.38;;
65375;SDS011;51976;47.332;9.404;2023-05-19T06:49:48;8.80;;;4.65;;
65375;SDS011;51976;47.332;9.404;2023-05-19T06:52:20;6.88;;;4.88;;
65375;SDS011;51976;47.332;9.404;2023-05-19T06:54:46;10.50;;;4.82;;
65375;SDS011;51976;47.332;9.404;2023-05-19T06:57:14;10.43;;;5.55;;
65375;SDS011;51976;47.332;9.404;2023-05-19T06:59:40;10.18;;;4.95;;
65375;SDS011;51976;47.332;9.404;2023-05-19T07:02:07;8.77;;;5.25;;
65375;SDS011;51976;47.332;9.404;2023-05-19T07:04:32;7.75;;;4.55;;
65375;SDS011;51976;47.332;9.404;2023-05-19T07:06:58;6.82;;;4.50;;
65375;SDS011;51976;47.332;9.404;2023-05-19T07:09:23;7.00;;;4.68;;
65375;SDS011;51976;47.332;9.404;2023-05-19T07:11:49;5.55;;;4.25;;
65375;SDS011;51976;47.332;9.404;2023-05-19T07:14:14;9.75;;;5.07;;
65375;SDS011;51976;47.332;9.404;2023-05-19T07:16:39;7.15;;;4.95;;
65375;SDS011;51976;47.332;9.404;2023-05-19T07:19:05;7.28;;;4.70;;
65375;SDS011;51976;47.332;9.404;2023-05-19T07:21:30;12.10;;;5.00;;
65375;SDS011;51976;47.332;9.404;2023-05-19T07:23:56;9.77;;;4.68;;
65375;SDS011;51976;47.332;9.404;2023-05-19T07:26:21;8.20;;;4.80;;
65375;SDS011;51976;47.332;9.404;2023-05-19T07:28:46;13.25;;;4.95;;
65375;SDS011;51976;47.332;9.404;2023-05-19T07:31:12;9.05;;;4.45;;
65375;SDS011;51976;47.332;9.404;2023-05-19T07:33:37;9.40;;;4.95;;
65375;SDS011;51976;47.332;9.404;2023-05-19T07:36:03;7.18;;;4.40;;
65375;SDS011;51976;47.332;9.404;2023-05-19T07:38:29;9.57;;;5.07;;
65375;SDS011;51976;47.332;9.404;2023-05-19T07:40:55;7.85;;;5.28;;
65375;SDS011;51976;47.332;9.404;2023-05-19T07:43:20;7.45;;;4.68;;
65375;SDS011;51976;47.332;9.404;2023-05-19T07:45:46;8.32;;;5.38;;
65375;SDS011;51976;47.332;9.404;2023-05-19T07:48:11;7.97;;;4.80;;
65375;SDS011;51976;47.332;9.404;2023-05-19T07:50:37;9.43;;;5.60;;
65375;SDS011;51976;47.332;9.404;2023-05-19T07:53:02;15.50;;;10.88;;
65375;SDS011;51976;47.332;9.404;2023-05-19T07:55:28;18.83;;;12.07;;
65375;SDS011;51976;47.332;9.404;2023-05-19T07:57:53;24.63;;;14.38;;
65375;SDS011;51976;47.332;9.404;2023-05-19T08:00:20;10.32;;;7.32;;
65375;SDS011;51976;47.332;9.404;2023-05-19T08:02:45;7.05;;;4.90;;
65375;SDS011;51976;47.332;9.404;2023-05-19T08:05:11;8.38;;;5.10;;
65375;SDS011;51976;47.332;9.404;2023-05-19T08:07:36;6.75;;;4.78;;
65375;SDS011;51976;47.332;9.404;2023-05-19T08:10:02;6.75;;;4.88;;
65375;SDS011;51976;47.332;9.404;2023-05-19T08:12:27;12.07;;;5.07;;
65375;SDS011;51976;47.332;9.404;2023-05-19T08:14:53;8.50;;;5.03;;
65375;SDS011;51976;47.332;9.404;2023-05-19T08:17:18;5.95;;;4.28;;
65375;SDS011;51976;47.332;9.404;2023-05-19T08:19:43;8.15;;;4.68;;
65375;SDS011;51976;47.332;9.404;2023-05-19T08:22:09;5.85;;;4.38;;
65375;SDS011;51976;47.332;9.404;2023-05-19T08:24:34;8.77;;;3.92;;
65375;SDS011;51976;47.332;9.404;2023-05-19T08:27:00;6.38;;;4.22;;
65375;SDS011;51976;47.332;9.404;2023-05-19T08:29:25;5.60;;;3.95;;
65375;SDS011;51976;47.332;9.404;2023-05-19T08:31:50;8.68;;;4.25;;
65375;SDS011;51976;47.332;9.404;2023-05-19T08:34:17;6.03;;;4.70;;
65375;SDS011;51976;47.332;9.404;2023-05-19T08:36:46;7.15;;;5.07;;
65375;SDS011;51976;47.332;9.404;2023-05-19T08:39:11;6.13;;;4.97;;
65375;SDS011;51976;47.332;9.404;2023-05-19T08:41:38;7.88;;;4.53;;
65375;SDS011;51976;47.332;9.404;2023-05-19T08:44:04;7.38;;;4.88;;
65375;SDS011;51976;47.332;9.404;2023-05-19T08:46:29;9.23;;;5.32;;
65375;SDS011;51976;47.332;9.404;2023-05-19T08:48:57;7.53;;;4.80;;
65375;SDS011;51976;47.332;9.404;2023-05-19T08:51:26;6.60;;;4.85;;
65375;SDS011;51976;47.332;9.404;2023-05-19T08:54:03;8.00;;;5.20;;
65375;SDS011;51976;47.332;9.404;2023-05-19T08:56:36;8.43;;;5.07;;
65375;SDS011;51976;47.332;9.404;2023-05-19T08:59:02;6.50;;;4.60;;
65375;SDS011;51976;47.332;9.404;2023-05-19T09:01:29;7.72;;;5.35;;
65375;SDS011;51976;47.332;9.404;2023-05-19T09:03:55;7.20;;;5.35;;
65375;SDS011;51976;47.332;9.404;2023-05-19T09:06:21;8.52;;;5.30;;
65375;SDS011;51976;47.332;9.404;2023-05-19T09:08:47;7.85;;;4.97;;
65375;SDS011;51976;47.332;9.404;2023-05-19T09:11:12;7.95;;;5.38;;
65375;SDS011;51976;47.332;9.404;2023-05-19T09:13:38;6.88;;;5.10;;
65375;SDS011;51976;47.332;9.404;2023-05-19T09:16:04;6.70;;;5.22;;
65375;SDS011;51976;47.332;9.404;2023-05-19T09:18:30;7.63;;;5.03;;
65375;SDS011;51976;47.332;9.404;2023-05-19T09:20:56;8.98;;;5.35;;
65375;SDS011;51976;47.332;9.404;2023-05-19T09:23:24;7.43;;;4.88;;
65375;SDS011;51976;47.332;9.404;2023-05-19T09:25:53;8.93;;;4.85;;
65375;SDS011;51976;47.332;9.404;2023-05-19T09:28:25;8.77;;;5.15;;
65375;SDS011;51976;47.332;9.404;2023-05-19T09:30:57;11.20;;;5.28;;
65375;SDS011;51976;47.332;9.404;2023-05-19T09:33:24;7.65;;;5.10;;
65375;SDS011;51976;47.332;9.404;2023-05-19T09:35:50;7.15;;;4.75;;
65375;SDS011;51976;47.332;9.404;2023-05-19T09:38:18;7.78;;;5.20;;
65375;SDS011;51976;47.332;9.404;2023-05-19T09:40:45;7.78;;;5.05;;
65375;SDS011;51976;47.332;9.404;2023-05-19T09:43:12;5.80;;;4.72;;
65375;SDS011;51976;47.332;9.404;2023-05-19T09:45:38;11.75;;;4.97;;
65375;SDS011;51976;47.332;9.404;2023-05-19T09:48:03;7.55;;;4.82;;
65375;SDS011;51976;47.332;9.404;2023-05-19T09:50:29;9.02;;;4.85;;
65375;SDS011;51976;47.332;9.404;2023-05-19T09:52:56;13.68;;;6.20;;
65375;SDS011;51976;47.332;9.404;2023-05-19T09:55:22;7.85;;;4.88;;
65375;SDS011;51976;47.332;9.404;2023-05-19T09:57:50;7.18;;;4.95;;
65375;SDS011;51976;47.332;9.404;2023-05-19T10:00:20;7.68;;;5.22;;
65375;SDS011;51976;47.332;9.404;2023-05-19T10:02:47;5.80;;;4.70;;
65375;SDS011;51976;47.332;9.404;2023-05-19T10:05:15;7.82;;;4.68;;
65375;SDS011;51976;47.332;9.404;2023-05-19T10:07:43;7.07;;;4.72;;
65375;SDS011;51976;47.332;9.404;2023-05-19T10:10:12;8.85;;;5.10;;
65375;SDS011;51976;47.332;9.404;2023-05-19T10:12:38;8.07;;;4.78;;
65375;SDS011;51976;47.332;9.404;2023-05-19T10:15:06;7.47;;;5.03;;
65375;SDS011;51976;47.332;9.404;2023-05-19T10:17:33;7.50;;;4.55;;
65375;SDS011;51976;47.332;9.404;2023-05-19T10:20:01;8.55;;;5.20;;
65375;SDS011;51976;47.332;9.404;2023-05-19T10:22:28;6.72;;;4.20;;
65375;SDS011;51976;47.332;9.404;2023-05-19T10:24:54;5.70;;;4.95;;
65375;SDS011;51976;47.332;9.404;2023-05-19T10:27:19;7.07;;;4.60;;
65375;SDS011;51976;47.332;9.404;2023-05-19T10:29:48;8.18;;;4.50;;
65375;SDS011;51976;47.332;9.404;2023-05-19T10:32:17;8.32;;;4.50;;
65375;SDS011;51976;47.332;9.404;2023-05-19T10:34:56;5.60;;;4.43;;
65375;SDS011;51976;47.332;9.404;2023-05-19T10:40:59;7.63;;;4.72;;
65375;SDS011;51976;47.332;9.404;2023-05-19T10:46:36;8.98;;;4.05;;
65375;SDS011;51976;47.332;9.404;2023-05-19T10:49:06;7.63;;;4.72;;
65375;SDS011;51976;47.332;9.404;2023-05-19T10:51:32;5.95;;;4.57;;
65375;SDS011;51976;47.332;9.404;2023-05-19T10:54:01;6.45;;;4.65;;
65375;SDS011;51976;47.332;9.404;2023-05-19T10:56:28;7.38;;;4.70;;
65375;SDS011;51976;47.332;9.404;2023-05-19T10:58:56;9.02;;;4.65;;
65375;SDS011;51976;47.332;9.404;2023-05-19T11:01:22;8.90;;;4.57;;
65375;SDS011;51976;47.332;9.404;2023-05-19T11:03:55;7.55;;;4.35;;
65375;SDS011;51976;47.332;9.404;2023-05-19T11:06:28;7.43;;;4.55;;
65375;SDS011;51976;47.332;9.404;2023-05-19T11:08:56;5.95;;;4.43;;
65375;SDS011;51976;47.332;9.404;2023-05-19T11:11:26;7.60;;;4.60;;
65375;SDS011;51976;47.332;9.404;2023-05-19T11:14:13;6.30;;;4.55;;
65375;SDS011;51976;47.332;9.404;2023-05-19T11:16:41;6.43;;;4.32;;
65375;SDS011;51976;47.332;9.404;2023-05-19T11:19:16;5.60;;;4.03;;
65375;SDS011;51976;47.332;9.404;2023-05-19T11:21:51;6.65;;;4.72;;
65375;SDS011;51976;47.332;9.404;2023-05-19T11:24:33;10.10;;;4.65;;
65375;SDS011;51976;47.332;9.404;2023-05-19T11:27:16;7.35;;;4.72;;
65375;SDS011;51976;47.332;9.404;2023-05-19T11:29:51;7.47;;;4.90;;
65375;SDS011;51976;47.332;9.404;2023-05-19T11:32:21;7.07;;;4.82;;
65375;SDS011;51976;47.332;9.404;2023-05-19T11:34:50;6.28;;;5.00;;
65375;SDS011;51976;47.332;9.404;2023-05-19T11:37:17;8.43;;;4.72;;
65375;SDS011;51976;47.332;9.404;2023-05-19T11:39:43;6.60;;;4.30;;
65375;SDS011;51976;47.332;9.404;2023-05-19T11:42:10;8.57;;;4.45;;
65375;SDS011;51976;47.332;9.404;2023-05-19T11:44:36;6.22;;;4.40;;
65375;SDS011;51976;47.332;9.404;2023-05-19T11:47:02;6.90;;;4.03;;
65375;SDS011;51976;47.332;9.404;2023-05-19T11:49:28;7.03;;;4.70;;
65375;SDS011;51976;47.332;9.404;2023-05-19T11:51:54;6.15;;;4.25;;
65375;SDS011;51976;47.332;9.404;2023-05-19T11:54:20;6.13;;;4.10;;
65375;SDS011;51976;47.332;9.404;2023-05-19T11:56:45;6.47;;;4.50;;
65375;SDS011;51976;47.332;9.404;2023-05-19T11:59:11;5.88;;;3.97;;
65375;SDS011;51976;47.332;9.404;2023-05-19T12:01:37;6.25;;;4.18;;
65375;SDS011;51976;47.332;9.404;2023-05-19T12:04:06;7.28;;;4.05;;
65375;SDS011;51976;47.332;9.404;2023-05-19T12:06:34;7.57;;;4.28;;
65375;SDS011;51976;47.332;9.404;2023-05-19T12:08:59;6.32;;;4.18;;
65375;SDS011;51976;47.332;9.404;2023-05-19T12:11:26;5.43;;;3.75;;
65375;SDS011;51976;47.332;9.404;2023-05-19T12:13:54;6.00;;;4.25;;
65375;SDS011;51976;47.332;9.404;2023-05-19T12:16:22;4.78;;;3.72;;
65375;SDS011;51976;47.332;9.404;2023-05-19T12:18:56;6.90;;;4.05;;
65375;SDS011;51976;47.332;9.404;2023-05-19T12:21:21;8.20;;;5.05;;
65375;SDS011;51976;47.332;9.404;2023-05-19T12:23:46;6.80;;;4.78;;
65375;SDS011;51976;47.332;9.404;2023-05-19T12:26:13;8.13;;;4.50;;
65375;SDS011;51976;47.332;9.404;2023-05-19T12:28:38;6.55;;;4.20;;
65375;SDS011;51976;47.332;9.404;2023-05-19T12:31:04;14.35;;;5.28;;
65375;SDS011;51976;47.332;9.404;2023-05-19T12:33:31;5.28;;;4.38;;
65375;SDS011;51976;47.332;9.404;2023-05-19T12:35:57;8.90;;;3.88;;
65375;SDS011;51976;47.332;9.404;2023-05-19T12:38:22;6.82;;;3.63;;
65375;SDS011;51976;47.332;9.404;2023-05-19T12:40:48;6.85;;;3.60;;
65375;SDS011;51976;47.332;9.404;2023-05-19T12:43:20;4.93;;;3.92;;
65375;SDS011;51976;47.332;9.404;2023-05-19T12:45:46;5.95;;;3.78;;
65375;SDS011;51976;47.332;9.404;2023-05-19T12:48:12;6.05;;;4.10;;
65375;SDS011;51976;47.332;9.404;2023-05-19T12:50:40;7.38;;;3.78;;
65375;SDS011;51976;47.332;9.404;2023-05-19T12:53:09;5.95;;;3.55;;
65375;SDS011;51976;47.332;9.404;2023-05-19T12:55:39;6.40;;;4.07;;
65375;SDS011;51976;47.332;9.404;2023-05-19T12:58:08;5.95;;;3.75;;
65375;SDS011;51976;47.332;9.404;2023-05-19T13:00:41;6.00;;;4.43;;
65375;SDS011;51976;47.332;9.404;2023-05-19T13:03:13;7.00;;;3.83;;
65375;SDS011;51976;47.332;9.404;2023-05-19T13:05:40;6.07;;;4.28;;
65375;SDS011;51976;47.332;9.404;2023-05-19T13:08:16;6.80;;;4.00;;
65375;SDS011;51976;47.332;9.404;2023-05-19T13:10:44;9.75;;;4.35;;
65375;SDS011;51976;47.332;9.404;2023-05-19T13:13:10;4.88;;;4.07;;
65375;SDS011;51976;47.332;9.404;2023-05-19T13:15:38;4.32;;;3.50;;
65375;SDS011;51976;47.332;9.404;2023-05-19T13:18:05;7.00;;;3.72;;
65375;SDS011;51976;47.332;9.404;2023-05-19T13:20:32;7.53;;;4.28;;
65375;SDS011;51976;47.332;9.404;2023-05-19T13:22:59;7.97;;;4.18;;
65375;SDS011;51976;47.332;9.404;2023-05-19T13:25:25;6.50;;;4.18;;
65375;SDS011;51976;47.332;9.404;2023-05-19T13:27:51;8.15;;;4.32;;
65375;SDS011;51976;47.332;9.404;2023-05-19T13:30:17;8.32;;;4.57;;
65375;SDS011;51976;47.332;9.404;2023-05-19T13:32:43;7.97;;;4.35;;
65375;SDS011;51976;47.332;9.404;2023-05-19T13:35:09;7.28;;;4.03;;
65375;SDS011;51976;47.332;9.404;2023-05-19T13:37:36;10.00;;;4.47;;
65375;SDS011;51976;47.332;9.404;2023-05-19T13:40:03;8.48;;;4.60;;
65375;SDS011;51976;47.332;9.404;2023-05-19T13:42:30;7.88;;;4.38;;
65375;SDS011;51976;47.332;9.404;2023-05-19T13:44:56;7.85;;;4.50;;
65375;SDS011;51976;47.332;9.404;2023-05-19T13:47:22;9.32;;;4.70;;
65375;SDS011;51976;47.332;9.404;2023-05-19T13:49:48;5.95;;;4.22;;
65375;SDS011;51976;47.332;9.404;2023-05-19T13:52:13;8.02;;;4.28;;
65375;SDS011;51976;47.332;9.404;2023-05-19T13:54:39;10.15;;;4.63;;
65375;SDS011;51976;47.332;9.404;2023-05-19T13:57:04;8.40;;;4.45;;
65375;SDS011;51976;47.332;9.404;2023-05-19T13:59:30;7.28;;;4.32;;
65375;SDS011;51976;47.332;9.404;2023-05-19T14:01:56;6.78;;;4.50;;
65375;SDS011;51976;47.332;9.404;2023-05-19T14:04:21;6.72;;;5.10;;
65375;SDS011;51976;47.332;9.404;2023-05-19T14:06:48;9.05;;;5.07;;
65375;SDS011;51976;47.332;9.404;2023-05-19T14:09:14;9.23;;;5.00;;
65375;SDS011;51976;47.332;9.404;2023-05-19T14:11:40;7.47;;;4.88;;
65375;SDS011;51976;47.332;9.404;2023-05-19T14:14:06;6.90;;;4.55;;
65375;SDS011;51976;47.332;9.404;2023-05-19T14:16:31;6.72;;;5.22;;
65375;SDS011;51976;47.332;9.404;2023-05-19T14:18:57;7.35;;;5.22;;
65375;SDS011;51976;47.332;9.404;2023-05-19T14:21:22;6.88;;;4.88;;
65375;SDS011;51976;47.332;9.404;2023-05-19T14:23:48;11.20;;;5.50;;
65375;SDS011;51976;47.332;9.404;2023-05-19T14:26:14;7.75;;;4.55;;
65375;SDS011;51976;47.332;9.404;2023-05-19T14:28:39;6.68;;;4.70;;
65375;SDS011;51976;47.332;9.404;2023-05-19T14:31:05;6.68;;;4.60;;
65375;SDS011;51976;47.332;9.404;2023-05-19T14:33:35;6.78;;;4.85;;
65375;SDS011;51976;47.332;9.404;2023-05-19T14:36:01;7.35;;;5.05;;
65375;SDS011;51976;47.332;9.404;2023-05-19T14:38:26;6.30;;;4.68;;
65375;SDS011;51976;47.332;9.404;2023-05-19T14:40:51;7.88;;;4.85;;
65375;SDS011;51976;47.332;9.404;2023-05-19T14:43:17;9.10;;;5.07;;
65375;SDS011;51976;47.332;9.404;2023-05-19T14:45:42;7.25;;;5.40;;
65375;SDS011;51976;47.332;9.404;2023-05-19T14:48:08;8.15;;;4.95;;
65375;SDS011;51976;47.332;9.404;2023-05-19T14:50:35;9.50;;;4.80;;
65375;SDS011;51976;47.332;9.404;2023-05-19T14:53:01;6.30;;;4.82;;
65375;SDS011;51976;47.332;9.404;2023-05-19T14:55:26;5.90;;;4.65;;